createdAt,value
2023-04-19T00:00:21.762Z,7.7
2023-04-19T00:01:23.320Z,7.7
2023-04-19T00:02:26.568Z,7.7
2023-04-19T00:03:29.825Z,7.7
2023-04-19T00:04:32.936Z,7.7
2023-04-19T00:05:34.731Z,7.7
2023-04-19T00:06:36.282Z,7.7
2023-04-19T00:07:37.707Z,7.7
2023-04-19T00:08:39.058Z,7.6
2023-04-19T00:09:40.460Z,7.6
2023-04-19T00:10:41.884Z,7.6
2023-04-19T00:11:43.483Z,7.6
2023-04-19T00:12:44.882Z,7.6
2023-04-19T00:13:46.608Z,7.6
2023-04-19T00:14:48.216Z,7.6
2023-04-19T00:15:49.603Z,7.6
2023-04-19T00:16:51.501Z,7.5
2023-04-19T00:17:53.400Z,7.5
2023-04-19T00:18:54.977Z,7.6
2023-04-19T00:19:56.548Z,7.6
2023-04-19T00:20:58.160Z,7.6
2023-04-19T00:21:59.702Z,7.6
2023-04-19T00:23:01.307Z,7.6
2023-04-19T00:24:02.733Z,7.6
2023-04-19T00:25:04.209Z,7.5
2023-04-19T00:26:05.653Z,7.5
2023-04-19T00:27:07.272Z,7.5
2023-04-19T00:28:08.796Z,7.4
2023-04-19T00:29:10.340Z,7.4
2023-04-19T00:30:11.912Z,7.4
2023-04-19T00:31:13.497Z,7.4
2023-04-19T00:32:15.037Z,7.3
2023-04-19T00:33:16.578Z,7.3
2023-04-19T00:34:18.464Z,7.3
2023-04-19T00:35:19.851Z,7.2
2023-04-19T00:36:21.496Z,7.2
2023-04-19T00:37:22.891Z,7.1
2023-04-19T00:38:24.293Z,7.1
2023-04-19T00:39:25.816Z,7.1
2023-04-19T00:40:27.397Z,7.1
2023-04-19T00:41:28.923Z,7.1
2023-04-19T00:42:30.207Z,7.1
2023-04-19T00:43:31.606Z,7.1
2023-04-19T00:44:33.124Z,7.1
2023-04-19T00:45:34.709Z,7.2
2023-04-19T00:46:36.533Z,7.1
2023-04-19T00:47:38.434Z,7.2
2023-04-19T00:48:39.974Z,7.1
2023-04-19T00:49:41.526Z,7.1
2023-04-19T00:50:43.015Z,7.1
2023-04-19T00:51:44.329Z,7.1
2023-04-19T00:57:19.340Z,7.1
2023-04-19T00:58:20.851Z,7.1
2023-04-19T00:59:22.281Z,7.1
2023-04-19T01:00:23.785Z,7.1
2023-04-19T01:01:25.397Z,7.2
2023-04-19T01:02:27.822Z,7.2
2023-04-19T01:06:36.149Z,7.1
2023-04-19T01:07:37.763Z,7.2
2023-04-19T01:08:39.133Z,7.2
2023-04-19T01:09:40.607Z,7.2
2023-04-19T01:10:42.019Z,7.2
2023-04-19T01:12:46.346Z,7.2
2023-04-19T01:14:49.293Z,7.2
2023-04-19T01:15:51.229Z,7.2
2023-04-19T01:16:52.697Z,7.2
2023-04-19T01:17:54.418Z,7.2
2023-04-19T01:20:10.961Z,7.1
2023-04-19T01:21:12.486Z,7.1
2023-04-19T01:22:14.038Z,7.1
2023-04-19T01:23:15.594Z,7.1
2023-04-19T01:24:18.131Z,7.1
2023-04-19T01:25:19.676Z,7.1
2023-04-19T01:26:20.951Z,7.1
2023-04-19T01:27:22.484Z,7.1
2023-04-19T01:28:24.023Z,7.1
2023-04-19T02:30:32.844Z,7.1
2023-04-19T02:31:34.580Z,7.1
2023-04-19T02:32:36.320Z,7.1
2023-04-19T02:33:37.972Z,7.1
2023-04-19T02:34:39.515Z,7.1
2023-04-19T02:35:40.893Z,7.1
2023-04-19T02:36:42.334Z,7.1
2023-04-19T02:37:43.874Z,7.1
2023-04-19T02:38:45.281Z,7.2
2023-04-19T02:39:46.881Z,7.1
2023-04-19T02:40:48.406Z,7.1
2023-04-19T02:41:49.798Z,7.1
2023-04-19T02:42:51.219Z,7.1
2023-04-19T02:43:52.520Z,7.1
2023-04-19T02:44:53.991Z,7.1
2023-04-19T02:45:55.709Z,7.1
2023-04-19T02:46:57.101Z,7.1
2023-04-19T02:47:59.081Z,7.1
2023-04-19T02:49:00.603Z,7.1
2023-04-19T02:50:01.973Z,7.1
2023-04-19T02:51:03.530Z,7.1
2023-04-19T02:52:05.222Z,7.1
2023-04-19T02:53:06.553Z,7.2
2023-04-19T02:54:08.134Z,7.2
2023-04-19T02:55:09.729Z,7.2
2023-04-19T02:56:11.090Z,7.2
2023-04-19T02:57:12.639Z,7.2
2023-04-19T02:58:14.157Z,7.2
2023-04-19T02:59:15.436Z,7.2
2023-04-19T03:00:16.871Z,7.2
2023-04-19T03:01:18.552Z,7.2
2023-04-19T03:02:20.441Z,7.2
2023-04-19T03:03:22.513Z,7.2
2023-04-19T03:04:24.796Z,7.3
2023-04-19T03:05:26.595Z,7.3
2023-04-19T03:06:28.098Z,7.3
2023-04-19T03:07:29.618Z,7.3
2023-04-19T03:08:31.201Z,7.4
2023-04-19T03:09:32.471Z,7.4
2023-04-19T03:10:34.024Z,7.5
2023-04-19T03:11:35.403Z,7.6
2023-04-19T03:12:36.801Z,7.7
2023-04-19T03:13:38.338Z,7.8
2023-04-19T03:14:39.877Z,7.9
2023-04-19T03:15:41.570Z,7.9
2023-04-19T03:16:43.243Z,7.9
2023-04-19T03:17:45.398Z,7.9
2023-04-19T03:18:50.856Z,7.9
2023-04-19T03:19:52.385Z,7.9
2023-04-19T03:20:53.934Z,7.9
2023-04-19T03:21:55.346Z,7.9
2023-04-19T03:22:57.021Z,7.9
2023-04-19T03:23:58.580Z,7.9
2023-04-19T03:24:59.978Z,7.9
2023-04-19T03:26:01.579Z,7.9
2023-04-19T03:27:02.931Z,7.9
2023-04-19T03:28:04.313Z,7.9
2023-04-19T03:29:05.850Z,7.9
2023-04-19T03:30:07.379Z,7.3
2023-04-19T03:31:09.728Z,7.4
2023-04-19T03:32:11.266Z,7.5
2023-04-19T03:33:12.643Z,7.6
2023-04-19T03:34:15.527Z,7.7
2023-04-19T03:35:17.198Z,7.8
2023-04-19T03:36:18.795Z,7.9
2023-04-19T03:37:20.853Z,7.9
2023-04-19T03:38:22.550Z,7.9
2023-04-19T03:39:24.036Z,7.9
2023-04-19T03:40:25.601Z,7.9
2023-04-19T03:41:27.190Z,7.9
2023-04-19T03:42:30.573Z,7.9
2023-04-19T03:43:32.145Z,7.9
2023-04-19T03:44:33.687Z,7.9
2023-04-19T03:45:35.398Z,7.9
2023-04-19T03:46:37.307Z,7.1
2023-04-19T03:47:39.246Z,7.3
2023-04-19T03:48:40.683Z,7.4
2023-04-19T03:49:42.278Z,7.4
2023-04-19T03:50:43.836Z,7.6
2023-04-19T03:51:45.449Z,7.6
2023-04-19T03:52:46.893Z,7.7
2023-04-19T03:53:48.416Z,7.8
2023-04-19T03:54:49.843Z,7.8
2023-04-19T03:55:51.125Z,7.9
2023-04-19T03:56:52.688Z,7.8
2023-04-19T03:57:54.063Z,7.8
2023-04-19T03:58:55.576Z,7.8
2023-04-19T03:59:57.109Z,7.8
2023-04-19T04:00:58.636Z,7.8
2023-04-19T04:02:00.679Z,7.8
2023-04-19T04:03:03.878Z,7.8
2023-04-19T04:04:07.657Z,7.8
2023-04-19T04:05:10.221Z,7.8
2023-04-19T04:06:11.780Z,7.8
2023-04-19T04:07:13.313Z,7.8
2023-04-19T04:08:14.859Z,7.8
2023-04-19T04:09:16.435Z,7.8
2023-04-19T04:10:17.983Z,7.8
2023-04-19T04:11:19.499Z,7.8
2023-04-19T04:12:21.038Z,7.8
2023-04-19T04:13:22.326Z,7.8
2023-04-19T04:14:23.849Z,7.8
2023-04-19T04:15:25.360Z,7.8
2023-04-19T04:16:27.143Z,7.8
2023-04-19T04:17:28.843Z,7.8
2023-04-19T04:18:30.250Z,7.8
2023-04-19T04:19:31.784Z,7.7
2023-04-19T04:20:33.346Z,7.6
2023-04-19T04:21:34.788Z,7.5
2023-04-19T04:22:36.597Z,7.3
2023-04-19T04:23:38.017Z,7.2
2023-04-19T04:24:39.595Z,7.1
2023-04-19T04:25:41.176Z,7.1
2023-04-19T04:26:42.676Z,7.1
2023-04-19T04:27:44.235Z,7.1
2023-04-19T04:28:45.804Z,7.1
2023-04-19T04:29:47.252Z,7.1
2023-04-19T04:30:48.816Z,7.1
2023-04-19T04:31:50.894Z,7.1
2023-04-19T04:32:53.059Z,7.1
2023-04-19T04:33:54.560Z,7.1
2023-04-19T04:34:56.121Z,7.1
2023-04-19T04:35:57.556Z,7.1
2023-04-19T04:36:59.062Z,7.1
2023-04-19T04:38:08.479Z,7.1
2023-04-19T04:39:15.557Z,7.1
2023-04-19T04:40:17.175Z,7.1
2023-04-19T04:41:18.787Z,7.1
2023-04-19T04:42:20.938Z,7.1
2023-04-19T04:43:22.677Z,7.1
2023-04-19T04:44:25.146Z,7.1
2023-04-19T04:45:26.904Z,7.1
2023-04-19T04:46:28.455Z,7.2
2023-04-19T04:47:30.151Z,7.2
2023-04-19T04:48:31.586Z,7.2
2023-04-19T04:49:33.106Z,7.2
2023-04-19T04:50:34.652Z,7.2
2023-04-19T04:51:36.077Z,7.2
2023-04-19T04:52:37.630Z,7.2
2023-04-19T04:53:39.032Z,7.2
2023-04-19T04:54:40.493Z,7.2
2023-04-19T04:55:42.100Z,7.2
2023-04-19T04:56:43.935Z,7.2
2023-04-19T04:57:45.471Z,7.2
2023-04-19T04:58:47.015Z,7.3
2023-04-19T04:59:48.521Z,7.3
2023-04-19T05:00:50.450Z,7.3
2023-04-19T05:01:52.129Z,7.4
2023-04-19T05:02:54.476Z,7.5
2023-04-19T05:03:56.240Z,7.5
2023-04-19T05:04:57.781Z,7.7
2023-04-19T05:05:59.035Z,7.7
2023-04-19T05:07:00.578Z,7.9
2023-04-19T05:08:02.278Z,7.2
2023-04-19T05:09:03.963Z,7.4
2023-04-19T05:10:05.507Z,7.5
2023-04-19T05:11:07.104Z,7.6
2023-04-19T05:12:08.621Z,7.8
2023-04-19T05:13:10.251Z,7.9
2023-04-19T05:14:11.690Z,7.9
2023-04-19T05:15:13.214Z,7.9
2023-04-19T05:16:14.763Z,7.3
2023-04-19T05:17:16.295Z,7.4
2023-04-19T05:18:17.963Z,7.5
2023-04-19T05:19:19.496Z,7.7
2023-04-19T05:20:21.026Z,7.8
2023-04-19T05:21:22.466Z,7.9
2023-04-19T05:22:24.081Z,7.9
2023-04-19T05:23:25.739Z,7.9
2023-04-19T05:24:27.023Z,7.9
2023-04-19T05:25:28.441Z,7.9
2023-04-19T05:26:30.046Z,7.9
2023-04-19T05:27:31.689Z,7.9
2023-04-19T05:28:33.188Z,7.9
2023-04-19T05:29:34.808Z,7.9
2023-04-19T05:30:36.332Z,7.9
2023-04-19T05:31:38.218Z,7.9
2023-04-19T05:32:40.049Z,7.9
2023-04-19T05:33:41.427Z,7.9
2023-04-19T05:34:42.991Z,7.9
2023-04-19T05:35:44.495Z,7.8
2023-04-19T05:36:45.916Z,7.8
2023-04-19T05:37:47.390Z,7.8
2023-04-19T05:38:48.938Z,7.8
2023-04-19T05:39:50.499Z,7.8
2023-04-19T05:40:51.975Z,7.8
2023-04-19T05:41:53.884Z,7.8
2023-04-19T05:42:55.495Z,7.8
2023-04-19T05:43:57.063Z,7.8
2023-04-19T05:44:58.663Z,7.8
2023-04-19T05:46:00.512Z,7.8
2023-04-19T05:47:02.116Z,7.8
2023-04-19T05:48:04.177Z,7.8
2023-04-19T05:49:05.949Z,7.7
2023-04-19T05:50:07.426Z,7.7
2023-04-19T05:51:08.812Z,7.7
2023-04-19T05:52:10.271Z,7.6
2023-04-19T05:53:11.913Z,7.6
2023-04-19T05:54:13.382Z,7.6
2023-04-19T05:55:15.184Z,7.6
2023-04-19T05:56:16.653Z,7.6
2023-04-19T05:57:18.159Z,7.6
2023-04-19T05:58:19.739Z,7.6
2023-04-19T05:59:21.299Z,7.6
2023-04-19T06:00:22.847Z,7.6
2023-04-19T06:01:24.285Z,7.6
2023-04-19T06:02:26.749Z,7.6
2023-04-19T06:03:34.587Z,7.7
2023-04-19T06:04:38.483Z,7.7
2023-04-19T06:05:40.281Z,7.7
2023-04-19T06:06:41.637Z,7.7
2023-04-19T08:17:43.437Z,7.2
2023-04-19T08:37:57.719Z,7.9
2023-04-19T09:26:23.637Z,7.9
2023-04-19T09:31:51.233Z,7.8
2023-04-19T10:01:16.708Z,7.2
2023-04-19T10:05:22.951Z,7.2
2023-04-19T10:07:30.448Z,7.2
2023-04-19T10:13:27.169Z,7.2
2023-04-19T10:29:30.170Z,7.9
2023-04-19T10:30:31.650Z,7.2
2023-04-19T10:31:33.379Z,7.4
2023-04-19T10:32:35.037Z,7.5
2023-04-19T10:33:36.654Z,7.7
2023-04-19T10:34:38.244Z,7.9
2023-04-19T10:35:39.785Z,7.9
2023-04-19T10:36:41.294Z,7.9
2023-04-19T10:37:42.732Z,7.9
2023-04-19T10:38:44.567Z,7.9
2023-04-19T10:39:46.265Z,7.9
2023-04-19T10:40:47.716Z,7.9
2023-04-19T10:41:49.127Z,7.9
2023-04-19T10:42:50.742Z,7.9
2023-04-19T10:43:52.265Z,7.8
2023-04-19T10:44:53.798Z,7.9
2023-04-19T10:45:55.448Z,7.9
2023-04-19T10:46:56.939Z,7.9
2023-04-19T10:47:58.886Z,7.9
2023-04-19T10:49:00.591Z,7.9
2023-04-19T10:50:01.981Z,7.9
2023-04-19T10:51:03.615Z,7.9
2023-04-19T10:52:04.794Z,7.9
2023-04-19T10:53:06.400Z,7.9
2023-04-19T10:54:08.460Z,7.9
2023-04-19T10:55:10.235Z,7.9
2023-04-19T10:56:11.799Z,7.9
2023-04-19T10:57:13.575Z,7.9
2023-04-19T10:58:14.736Z,7.3
2023-04-19T10:59:17.903Z,7.4
2023-04-19T11:00:19.409Z,7.5
2023-04-19T11:01:20.853Z,7.7
2023-04-19T11:02:24.041Z,7.8
2023-04-19T11:08:35.519Z,7.9
2023-04-19T11:09:37.170Z,7.9
2023-04-19T11:10:38.828Z,7.9
2023-04-19T11:11:40.365Z,7.9
2023-04-19T11:12:41.937Z,7.9
2023-04-19T11:13:43.246Z,7.9
2023-04-19T11:14:44.795Z,7.9
2023-04-19T11:15:46.515Z,7.9
2023-04-19T11:16:48.462Z,7.9
2023-04-19T12:26:10.660Z,7.9
2023-04-19T12:27:12.527Z,7.8
2023-04-19T12:31:20.117Z,7.8
2023-04-19T12:32:22.489Z,7.9
2023-04-19T12:37:31.418Z,7.8
2023-04-19T12:38:32.978Z,7.9
2023-04-19T12:39:34.415Z,7.1
2023-04-19T12:40:36.254Z,7.3
2023-04-19T12:41:38.050Z,7.4
2023-04-19T12:42:39.495Z,7.4
2023-04-19T12:43:41.005Z,7.5
2023-04-19T12:44:42.384Z,7.5
2023-04-19T12:45:44.555Z,7.6
2023-04-19T12:46:46.181Z,7.6
2023-04-19T12:47:48.149Z,7.6
2023-04-19T12:48:49.671Z,7.6
2023-04-19T12:49:51.230Z,7.6
2023-04-19T12:50:52.651Z,7.7
2023-04-19T12:56:04.653Z,7.6
2023-04-19T12:57:06.224Z,7.6
2023-04-19T12:58:07.820Z,7.5
2023-04-19T12:59:09.299Z,7.5
2023-04-19T13:00:11.052Z,7.5
2023-04-19T13:01:12.878Z,7.5
2023-04-19T13:02:14.986Z,7.5
2023-04-19T13:07:25.918Z,7.7
2023-04-19T13:57:01.814Z,7.2
2023-04-19T13:58:03.361Z,7.3
2023-04-19T13:59:04.816Z,7.3
2023-04-19T14:00:06.663Z,7.3
2023-04-19T14:08:22.987Z,7.9
2023-04-19T14:09:24.594Z,7.3
2023-04-19T14:10:26.161Z,7.4
2023-04-19T14:11:27.793Z,7.6
2023-04-19T14:12:29.257Z,7.8
2023-04-19T14:13:30.883Z,7.9
2023-04-19T14:15:35.548Z,7.9
2023-04-19T14:16:37.498Z,7.7
2023-04-19T14:17:39.280Z,7.9
2023-04-19T14:18:40.901Z,7.9
2023-04-19T14:19:42.365Z,7.8
2023-04-19T14:20:43.985Z,7.9
2023-04-19T14:21:45.532Z,7.9
2023-04-19T14:22:47.174Z,7.7
2023-04-19T14:23:48.653Z,7.9
2023-04-19T14:24:50.156Z,7.9
2023-04-19T14:25:51.782Z,7.9
2023-04-19T15:53:41.964Z,7.2
2023-04-19T15:54:43.546Z,7.2
2023-04-19T15:55:45.013Z,7.2
2023-04-19T15:56:46.338Z,7.2
2023-04-19T15:57:47.823Z,7.2
2023-04-19T15:58:49.292Z,7.3
2023-04-19T15:59:50.834Z,7.4
2023-04-19T16:00:52.308Z,7.4
2023-04-19T16:01:54.145Z,7.5
2023-04-19T16:02:56.993Z,7.6
2023-04-19T16:03:59.912Z,7.7
2023-04-19T16:06:03.785Z,7.9
2023-04-19T16:07:05.338Z,7.5
2023-04-19T16:08:07.036Z,7.6
2023-04-19T16:09:08.509Z,7.8
2023-04-19T16:10:10.288Z,7.9
2023-04-19T16:11:12.212Z,7.8
2023-04-19T16:12:13.832Z,7.9
2023-04-19T16:13:15.307Z,7.9
2023-04-19T16:14:16.890Z,7.3
2023-04-19T16:15:18.474Z,7.4
2023-04-19T16:16:20.433Z,7.6
2023-04-19T16:17:22.079Z,7.7
2023-04-19T16:18:23.533Z,7.8
2023-04-19T16:19:25.007Z,7.9
2023-04-19T16:20:26.644Z,7.9
2023-04-19T16:21:28.183Z,7.9
2023-04-19T16:22:29.358Z,7.9
2023-04-19T16:23:30.974Z,7.9
2023-04-19T16:24:32.522Z,7.9
2023-04-19T16:25:34.101Z,7.9
2023-04-19T16:26:35.641Z,7.9
2023-04-19T16:27:36.920Z,7.9
2023-04-19T16:28:38.541Z,7.2
2023-04-19T16:29:39.830Z,7.3
2023-04-19T16:30:41.333Z,7.3
2023-04-19T16:31:43.061Z,7.4
2023-04-19T16:32:45.124Z,7.4
2023-04-19T16:33:46.782Z,7.5
2023-04-19T16:34:48.406Z,7.6
2023-04-19T16:35:49.988Z,7.7
2023-04-19T16:36:51.441Z,7.8
2023-04-19T16:37:58.066Z,7.9
2023-04-19T16:38:59.598Z,7.9
2023-04-19T16:40:01.408Z,7.9
2023-04-19T16:41:02.983Z,7.1
2023-04-19T16:42:04.431Z,7.3
2023-04-19T16:43:05.955Z,7.4
2023-04-19T16:44:07.412Z,7.5
2023-04-19T16:45:08.868Z,7.5
2023-04-19T16:46:10.668Z,7.6
2023-04-19T16:47:12.337Z,7.5
2023-04-19T16:48:14.190Z,7.5
2023-04-19T16:49:17.721Z,7.4
2023-04-19T16:50:19.614Z,7.3
2023-04-19T16:51:21.318Z,7.2
2023-04-19T16:52:22.999Z,7.1
2023-04-19T16:53:24.400Z,7.1
2023-04-19T16:54:25.630Z,7.1
2023-04-19T16:55:27.290Z,7.1
2023-04-19T16:56:28.680Z,7.2
2023-04-19T16:57:30.109Z,7.1
2023-04-19T16:58:31.699Z,7.1
2023-04-19T16:59:33.309Z,7.1
2023-04-19T17:00:34.757Z,7.1
2023-04-19T17:01:36.774Z,7.1
2023-04-19T17:02:39.508Z,7.1
2023-04-19T17:03:42.698Z,7.1
2023-04-19T17:05:47.295Z,7.1
2023-04-19T17:07:50.506Z,7.1
2023-04-19T17:08:51.941Z,7.2
2023-04-19T17:09:53.437Z,7.1
2023-04-19T17:10:55.029Z,7.2
2023-04-19T17:11:56.663Z,7.2
2023-04-19T17:12:58.249Z,7.1
2023-04-19T17:13:59.704Z,7.2
2023-04-19T17:15:01.299Z,7.1
2023-04-19T17:16:03.000Z,7.2
2023-04-19T17:17:04.669Z,7.2
2023-04-19T17:18:06.600Z,7.2
2023-04-19T17:19:08.245Z,7.2
2023-04-19T17:20:09.873Z,7.2
2023-04-19T17:21:11.357Z,7.2
2023-04-19T17:22:12.972Z,7.3
2023-04-19T17:23:14.536Z,7.3
2023-04-19T17:24:15.927Z,7.3
2023-04-19T17:25:17.393Z,7.4
2023-04-19T17:26:18.990Z,7.4
2023-04-19T17:27:20.533Z,7.5
2023-04-19T17:28:22.072Z,7.6
2023-04-19T17:29:23.618Z,7.7
2023-04-19T17:30:25.201Z,7.8
2023-04-19T17:31:27.057Z,7.9
2023-04-19T17:32:28.834Z,7.3
2023-04-19T17:33:30.416Z,7.4
2023-04-19T17:34:32.083Z,7.6
2023-04-19T17:35:33.901Z,7.8
2023-04-19T17:36:35.340Z,7.9
2023-04-19T17:37:36.932Z,7.9
2023-04-19T17:38:38.547Z,7.9
2023-04-19T17:39:39.987Z,7.9
2023-04-19T17:40:41.564Z,7.9
2023-04-19T17:41:43.192Z,7.9
2023-04-19T17:42:44.626Z,7.9
2023-04-19T17:43:46.187Z,7.9
2023-04-19T17:44:47.764Z,7.9
2023-04-19T17:45:49.303Z,7.9
2023-04-19T17:46:50.955Z,7.9
2023-04-19T17:47:57.338Z,7.9
2023-04-19T17:48:58.710Z,7.9
2023-04-19T17:50:00.383Z,7.9
2023-04-19T17:51:01.995Z,7.9
2023-04-19T17:52:03.726Z,7.9
2023-04-19T17:53:05.435Z,7.9
2023-04-19T17:54:07.021Z,7.9
2023-04-19T17:55:08.544Z,7.9
2023-04-19T17:56:10.120Z,7.9
2023-04-19T17:57:11.674Z,7.9
2023-04-19T17:58:13.300Z,7.9
2023-04-19T17:59:15.469Z,7.2
2023-04-19T18:00:17.229Z,7.3
2023-04-19T18:01:18.891Z,7.4
2023-04-19T18:02:21.251Z,7.5
2023-04-19T18:03:23.869Z,7.6
2023-04-19T18:04:26.778Z,7.7
2023-04-19T18:05:28.407Z,7.8
2023-04-19T18:06:30.010Z,7.8
2023-04-19T18:07:31.607Z,7.8
2023-04-19T18:08:33.243Z,7.9
2023-04-19T18:09:34.763Z,7.8
2023-04-19T18:10:36.745Z,7.8
2023-04-19T18:11:38.308Z,7.9
2023-04-19T18:12:39.849Z,7.8
2023-04-19T18:13:41.311Z,7.9
2023-04-19T18:14:42.880Z,7.9
2023-04-19T18:15:44.194Z,7.9
2023-04-19T18:16:46.009Z,7.9
2023-04-19T18:17:47.923Z,7.9
2023-04-19T18:18:49.488Z,7.9
2023-04-19T18:19:50.918Z,7.9
2023-04-19T18:20:52.457Z,7.9
2023-04-19T18:21:54.187Z,7.8
2023-04-19T18:22:55.973Z,7.8
2023-04-19T18:23:57.692Z,7.8
2023-04-19T18:24:59.086Z,7.8
2023-04-19T18:26:00.560Z,7.8
2023-04-19T18:27:02.040Z,7.7
2023-04-19T18:28:03.653Z,7.7
2023-04-19T18:29:05.166Z,7.7
2023-04-19T18:30:06.759Z,7.7
2023-04-19T18:31:08.217Z,7.7
2023-04-19T18:32:10.144Z,7.7
2023-04-19T18:33:12.086Z,7.7
2023-04-19T18:34:14.058Z,7.8
2023-04-19T18:35:15.624Z,7.8
2023-04-19T18:36:17.151Z,7.8
2023-04-19T18:37:18.824Z,7.8
2023-04-19T18:38:20.529Z,7.8
2023-04-19T18:39:22.128Z,7.8
2023-04-19T18:40:23.603Z,7.8
2023-04-19T18:41:25.292Z,7.8
2023-04-19T18:42:27.053Z,7.8
2023-04-19T18:43:31.949Z,7.8
2023-04-19T19:05:02.800Z,7.1
2023-04-19T19:21:10.424Z,7.2
2023-04-19T19:35:45.492Z,7.9
2023-04-19T19:36:46.931Z,7.8
2023-04-19T19:37:48.501Z,7.9
2023-04-19T19:38:50.128Z,7.8
2023-04-19T19:42:07.432Z,7.4
2023-04-19T19:44:10.470Z,7.9
2023-04-19T19:45:11.799Z,7.9
2023-04-19T19:51:59.718Z,7.5
